TVF88JV LFPO-EDDB
Flight info
| Callsign | TVF88JV |
|---|---|
| Flight time | N/A |
| Altitude | 37000 |
| Route | RANUX DCT VALEK DCT LIPNI UN858 LIMGO DCT MASEK T278 KLF KLF1R |
| Aircraft | A320/M-SDE3FGHIRWY/LB1 |
Departure
| Time | 2026-05-07 13:41 |
|---|---|
| Airport | Paris-Orly Airport (LFPO) |
Arrival
| Time | N/A |
|---|---|
| Airport | Berlin Brandenburg Airport (EDDB) |
| Time | Latitude | Longitude | Altitude | Speed | Heading |
|---|---|---|---|---|---|
| 2026-05-07 13:30 | 48.72647 | 2.36485 | 302 ft | 0 kts | 332° |
| 2026-05-07 13:35 | 48.72638 | 2.36492 | 301 ft | 4 kts | 331° |
| 2026-05-07 13:35 | 48.72614 | 2.36511 | 301 ft | 4 kts | 341° |
| 2026-05-07 13:35 | 48.72594 | 2.36520 | 298 ft | 4 kts | 340° |
| 2026-05-07 13:36 | 48.72572 | 2.36538 | 303 ft | 4 kts | 303° |
| 2026-05-07 13:36 | 48.72568 | 2.36570 | 303 ft | 4 kts | 255° |
| 2026-05-07 13:36 | 48.72571 | 2.36588 | 303 ft | 0 kts | 255° |
| 2026-05-07 13:38 | 48.72570 | 2.36579 | 297 ft | 5 kts | 255° |
| 2026-05-07 13:38 | 48.72552 | 2.36481 | 298 ft | 11 kts | 255° |
| 2026-05-07 13:38 | 48.72534 | 2.36380 | 297 ft | 9 kts | 255° |
| 2026-05-07 13:38 | 48.72519 | 2.36298 | 297 ft | 8 kts | 255° |
| 2026-05-07 13:39 | 48.72473 | 2.36248 | 299 ft | 7 kts | 181° |
| 2026-05-07 13:39 | 48.72410 | 2.36257 | 300 ft | 15 kts | 170° |
| 2026-05-07 13:39 | 48.72302 | 2.36311 | 299 ft | 16 kts | 145° |
| 2026-05-07 13:39 | 48.72235 | 2.36431 | 301 ft | 14 kts | 120° |
| 2026-05-07 13:40 | 48.72197 | 2.36509 | 300 ft | 6 kts | 137° |
| 2026-05-07 13:40 | 48.72139 | 2.36550 | 301 ft | 13 kts | 161° |
| 2026-05-07 13:40 | 48.72087 | 2.36633 | 300 ft | 5 kts | 89° |
| 2026-05-07 13:40 | 48.72103 | 2.36727 | 301 ft | 29 kts | 76° |
| 2026-05-07 13:41 | 48.72227 | 2.37404 | 295 ft | 100 kts | 75° |
| 2026-05-07 13:41 | 48.72460 | 2.38674 | 302 ft | 151 kts | 74° |
| 2026-05-07 13:41 | 48.72766 | 2.40327 | 666 ft | 167 kts | 73° |
| 2026-05-07 13:41 | 48.73081 | 2.42045 | 1320 ft | 171 kts | 73° |
| 2026-05-07 13:42 | 48.73404 | 2.43825 | 2037 ft | 174 kts | 74° |
| 2026-05-07 13:42 | 48.73738 | 2.45677 | 2392 ft | 194 kts | 74° |
| 2026-05-07 13:42 | 48.74103 | 2.47726 | 2796 ft | 208 kts | 75° |
| 2026-05-07 13:42 | 48.74484 | 2.49913 | 3221 ft | 224 kts | 77° |
| 2026-05-07 13:43 | 48.74655 | 2.52383 | 3578 ft | 248 kts | 88° |
| 2026-05-07 13:43 | 48.74656 | 2.55082 | 4183 ft | 262 kts | 90° |
| 2026-05-07 13:43 | 48.74699 | 2.57869 | 5055 ft | 266 kts | 87° |
| 2026-05-07 13:43 | 48.74818 | 2.60691 | 5927 ft | 270 kts | 85° |
| 2026-05-07 13:44 | 48.74993 | 2.63548 | 6791 ft | 274 kts | 85° |
| 2026-05-07 13:44 | 48.75201 | 2.66439 | 7627 ft | 278 kts | 84° |
| 2026-05-07 13:44 | 48.75430 | 2.69373 | 8446 ft | 283 kts | 84° |
| 2026-05-07 13:44 | 48.75667 | 2.72356 | 9239 ft | 287 kts | 84° |
| 2026-05-07 13:45 | 48.75907 | 2.75391 | 10041 ft | 292 kts | 84° |
| 2026-05-07 13:45 | 48.76149 | 2.78511 | 10504 ft | 309 kts | 84° |
| 2026-05-07 13:45 | 48.76408 | 2.81868 | 10709 ft | 332 kts | 84° |
| 2026-05-07 13:45 | 48.76682 | 2.85469 | 10914 ft | 354 kts | 84° |
| 2026-05-07 13:46 | 48.76963 | 2.89222 | 11440 ft | 362 kts | 84° |
| 2026-05-07 13:46 | 48.77250 | 2.93039 | 12080 ft | 367 kts | 84° |
| 2026-05-07 13:46 | 48.77542 | 2.96918 | 12739 ft | 372 kts | 83° |
| 2026-05-07 13:46 | 48.77884 | 3.00788 | 13388 ft | 376 kts | 81° |
| 2026-05-07 13:47 | 48.78321 | 3.04683 | 14016 ft | 381 kts | 79° |
| 2026-05-07 13:47 | 48.78815 | 3.08647 | 14633 ft | 384 kts | 79° |
| 2026-05-07 13:47 | 48.79328 | 3.12636 | 15240 ft | 387 kts | 79° |
| 2026-05-07 13:47 | 48.79841 | 3.16660 | 15830 ft | 391 kts | 79° |
| 2026-05-07 13:48 | 48.80348 | 3.20738 | 16404 ft | 394 kts | 79° |
| 2026-05-07 13:48 | 48.80843 | 3.24844 | 16969 ft | 398 kts | 79° |
| 2026-05-07 13:48 | 48.81330 | 3.28995 | 17533 ft | 401 kts | 80° |
| 2026-05-07 13:48 | 48.81817 | 3.33186 | 18090 ft | 404 kts | 80° |
| 2026-05-07 13:49 | 48.82484 | 3.37336 | 18576 ft | 408 kts | 71° |
| 2026-05-07 13:49 | 48.83597 | 3.41307 | 19046 ft | 410 kts | 63° |
| 2026-05-07 13:49 | 48.84872 | 3.45204 | 19531 ft | 413 kts | 63° |
| 2026-05-07 13:49 | 48.86150 | 3.49117 | 20014 ft | 415 kts | 63° |
| 2026-05-07 13:50 | 48.87435 | 3.53070 | 20482 ft | 418 kts | 63° |
| 2026-05-07 13:50 | 48.88720 | 3.57040 | 20962 ft | 420 kts | 63° |
| 2026-05-07 13:50 | 48.90014 | 3.61046 | 21421 ft | 423 kts | 63° |
| 2026-05-07 13:50 | 48.91296 | 3.65025 | 21869 ft | 425 kts | 63° |
| 2026-05-07 13:51 | 48.92599 | 3.69075 | 22323 ft | 428 kts | 63° |
| 2026-05-07 13:51 | 48.93916 | 3.73166 | 22764 ft | 430 kts | 63° |
| 2026-05-07 13:51 | 48.95234 | 3.77263 | 23198 ft | 433 kts | 63° |
| 2026-05-07 13:51 | 48.96558 | 3.81389 | 23624 ft | 436 kts | 64° |
| 2026-05-07 13:52 | 48.97893 | 3.85561 | 23972 ft | 438 kts | 64° |
| 2026-05-07 13:52 | 48.99230 | 3.89747 | 24316 ft | 440 kts | 64° |
| 2026-05-07 13:52 | 49.00568 | 3.93954 | 24664 ft | 442 kts | 64° |
| 2026-05-07 13:52 | 49.01907 | 3.98182 | 25017 ft | 444 kts | 64° |
| 2026-05-07 13:53 | 49.03254 | 4.02439 | 25358 ft | 446 kts | 64° |
| 2026-05-07 13:53 | 49.04605 | 4.06708 | 25687 ft | 448 kts | 64° |
| 2026-05-07 13:53 | 49.05965 | 4.11002 | 26018 ft | 450 kts | 64° |
| 2026-05-07 13:53 | 49.07332 | 4.15318 | 26123 ft | 453 kts | 64° |
| 2026-05-07 13:54 | 49.08676 | 4.19573 | 25985 ft | 450 kts | 64° |
| 2026-05-07 13:54 | 49.09740 | 4.24054 | 25809 ft | 449 kts | 77° |
| 2026-05-07 13:54 | 49.10014 | 4.28781 | 25419 ft | 447 kts | 94° |
| 2026-05-07 13:54 | 49.09438 | 4.33443 | 25028 ft | 448 kts | 110° |
| 2026-05-07 13:55 | 49.08067 | 4.37687 | 24640 ft | 445 kts | 124° |
| 2026-05-07 13:55 | 49.06326 | 4.41590 | 24271 ft | 443 kts | 126° |
| 2026-05-07 13:55 | 49.04594 | 4.45450 | 23884 ft | 441 kts | 126° |
| 2026-05-07 13:55 | 49.02866 | 4.49305 | 23487 ft | 438 kts | 126° |
| 2026-05-07 13:56 | 49.01151 | 4.53139 | 23038 ft | 436 kts | 126° |
| 2026-05-07 13:56 | 48.99452 | 4.56936 | 22611 ft | 433 kts | 126° |
| 2026-05-07 13:56 | 48.97759 | 4.60709 | 22168 ft | 430 kts | 126° |
| 2026-05-07 13:56 | 48.96068 | 4.64462 | 21736 ft | 428 kts | 126° |
| 2026-05-07 13:57 | 48.94386 | 4.68181 | 21326 ft | 425 kts | 126° |
| 2026-05-07 13:57 | 48.92712 | 4.71880 | 20905 ft | 423 kts | 126° |
| 2026-05-07 13:57 | 48.91052 | 4.75555 | 20478 ft | 421 kts | 126° |
| 2026-05-07 13:57 | 48.89418 | 4.79172 | 20102 ft | 418 kts | 126° |
| 2026-05-07 13:58 | 48.87772 | 4.82807 | 19695 ft | 416 kts | 126° |
| 2026-05-07 13:58 | 48.86134 | 4.86416 | 19312 ft | 414 kts | 126° |
| 2026-05-07 13:58 | 48.84503 | 4.90008 | 18925 ft | 412 kts | 126° |
| 2026-05-07 13:58 | 48.82874 | 4.93586 | 18544 ft | 410 kts | 126° |
| 2026-05-07 13:59 | 48.81253 | 4.97142 | 18161 ft | 408 kts | 126° |
| 2026-05-07 13:59 | 48.79636 | 5.00687 | 18053 ft | 407 kts | 126° |
| 2026-05-07 13:59 | 48.78028 | 5.04215 | 18080 ft | 408 kts | 126° |
| 2026-05-07 13:59 | 48.76413 | 5.07754 | 18077 ft | 408 kts | 126° |
| 2026-05-07 14:00 | 48.74801 | 5.11283 | 18074 ft | 408 kts | 126° |
| 2026-05-07 14:00 | 48.73185 | 5.14814 | 18076 ft | 408 kts | 126° |
| 2026-05-07 14:00 | 48.71566 | 5.18344 | 18075 ft | 408 kts | 126° |
| 2026-05-07 14:00 | 48.69946 | 5.21871 | 18073 ft | 408 kts | 126° |
| 2026-05-07 14:01 | 48.68326 | 5.25388 | 18073 ft | 408 kts | 126° |
| 2026-05-07 14:01 | 48.66722 | 5.28867 | 18067 ft | 408 kts | 126° |
| 2026-05-07 14:01 | 48.65098 | 5.32382 | 18065 ft | 408 kts | 126° |
| 2026-05-07 14:01 | 48.63474 | 5.35891 | 18064 ft | 408 kts | 126° |